Time;durP1;ratioP1;P1;durP2;ratioP2;P2;SDS_P1;SDS_P2;PMS_P1;PMS_P2;Temp;Humidity;BMP_temperature;BMP_pressure;BME280_temperature;BME280_humidity;BME280_pressure;Samples;Min_cycle;Max_cycle;Signal;HPM_P1;HPM_P2
2022/08/01 00:01:17;;;;;;;3.40;2.00;;;;;;;;;;110667;1248;35061;-36
2022/08/01 00:03:49;;;;;;;3.30;1.90;;;;;;;;;;110670;1244;35202;-35
2022/08/01 00:06:21;;;;;;;6.50;2.10;;;;;;;;;;110660;1254;35148;-35
2022/08/01 00:08:53;;;;;;;4.20;2.00;;;;;;;;;;110679;1244;34935;-34
2022/08/01 00:11:25;;;;;;;3.80;1.90;;;;;;;;;;110660;1253;34909;-35
2022/08/01 00:13:58;;;;;;;3.60;1.90;;;;;;;;;;110655;1253;34419;-37
2022/08/01 00:16:30;;;;;;;3.60;1.90;;;;;;;;;;110675;1253;34414;-37
2022/08/01 00:19:03;;;;;;;3.50;1.90;;;;;;;;;;110657;1253;35090;-36
2022/08/01 00:21:35;;;;;;;3.90;1.90;;;;;;;;;;110668;1253;34427;-35
2022/08/01 00:24:08;;;;;;;4.20;1.90;;;;;;;;;;110625;1254;33242;-37
2022/08/01 00:26:40;;;;;;;5.10;2.00;;;;;;;;;;110665;1248;34273;-36
2022/08/01 00:29:12;;;;;;;3.90;2.20;;;;;;;;;;110670;1253;34927;-37
2022/08/01 00:31:44;;;;;;;3.70;1.80;;;;;;;;;;110441;1256;35011;-36
2022/08/01 00:34:15;;;;;;;3.90;1.90;;;;;;;;;;110649;1248;35072;-35
2022/08/01 00:36:47;;;;;;;3.70;1.80;;;;;;;;;;110675;1248;34389;-37
2022/08/01 00:39:19;;;;;;;4.20;2.00;;;;;;;;;;110670;1253;35105;-40
2022/08/01 00:41:51;;;;;;;3.90;1.90;;;;;;;;;;110659;1245;35412;-39
2022/08/01 00:44:23;;;;;;;3.00;1.60;;;;;;;;;;110694;1253;33356;-36
2022/08/01 00:46:55;;;;;;;3.50;1.80;;;;;;;;;;110694;1253;35024;-38
2022/08/01 00:49:27;;;;;;;3.70;2.00;;;;;;;;;;110695;1253;34934;-39
2022/08/01 00:51:59;;;;;;;3.30;1.70;;;;;;;;;;110668;1253;35417;-38
2022/08/01 00:54:32;;;;;;;3.60;1.90;;;;;;;;;;110674;1253;35289;-38
2022/08/01 00:57:04;;;;;;;2.90;1.50;;;;;;;;;;110664;1253;34941;-40
2022/08/01 00:59:36;;;;;;;3.00;1.80;;;;;;;;;;110660;1253;35013;-36
2022/08/01 01:02:08;;;;;;;3.90;1.90;;;;;;;;;;110656;1250;34927;-38
2022/08/01 01:04:40;;;;;;;3.80;1.70;;;;;;;;;;110666;1253;34876;-36
2022/08/01 01:07:20;;;;;;;3.30;1.90;;;;;;;;;;110643;1254;33299;-35
2022/08/01 01:10:00;;;;;;;3.60;1.80;;;;;;;;;;110672;1253;34316;-39
2022/08/01 01:12:38;;;;;;;3.60;2.00;;;;;;;;;;110680;1248;34372;-36
2022/08/01 01:15:14;;;;;;;3.40;1.50;;;;;;;;;;110718;1244;35123;-43
2022/08/01 01:17:52;;;;;;;3.20;1.70;;;;;;;;;;110662;1248;33569;-35
2022/08/01 01:20:28;;;;;;;3.20;1.60;;;;;;;;;;110654;1253;34914;-38
2022/08/01 01:23:16;;;;;;;3.50;1.90;;;;;;;;;;110635;1253;35060;-38
2022/08/01 01:26:15;;;;;;;3.00;1.50;;;;;;;;;;110696;1253;35057;-36
2022/08/01 01:29:03;;;;;;;5.60;1.90;;;;;;;;;;110670;1253;34954;-35
2022/08/01 01:31:43;;;;;;;3.90;1.70;;;;;;;;;;110677;1253;34707;-37
2022/08/01 01:34:18;;;;;;;3.50;1.80;;;;;;;;;;110676;1254;33935;-37
2022/08/01 01:36:52;;;;;;;4.00;1.60;;;;;;;;;;110678;1253;31880;-38
2022/08/01 01:39:27;;;;;;;3.40;1.80;;;;;;;;;;110659;1248;31956;-39
2022/08/01 01:42:00;;;;;;;3.50;1.90;;;;;;;;;;110669;1253;32962;-37
2022/08/01 01:44:34;;;;;;;4.40;1.70;;;;;;;;;;110698;1254;34957;-35
2022/08/01 01:47:07;;;;;;;3.40;1.70;;;;;;;;;;110631;1253;34933;-35
2022/08/01 01:49:40;;;;;;;2.80;1.60;;;;;;;;;;110655;1253;34904;-35
2022/08/01 01:52:14;;;;;;;3.50;1.70;;;;;;;;;;110634;1253;33689;-35
2022/08/01 01:54:50;;;;;;;3.80;1.70;;;;;;;;;;110664;1244;33239;-33
2022/08/01 01:57:23;;;;;;;3.70;1.80;;;;;;;;;;110642;1253;35028;-32
2022/08/01 01:59:54;;;;;;;;;;;;;;;;;;110645;1253;35207;-34
2022/08/01 02:02:26;;;;;;;4.50;1.90;;;;;;;;;;110636;1253;34778;-34
2022/08/01 02:04:59;;;;;;;3.70;1.80;;;;;;;;;;110650;1253;34905;-35
2022/08/01 02:07:31;;;;;;;3.40;1.70;;;;;;;;;;110654;1253;35071;-34
2022/08/01 02:10:04;;;;;;;3.90;1.80;;;;;;;;;;110645;1253;35419;-34
2022/08/01 02:12:39;;;;;;;3.20;1.80;;;;;;;;;;110646;1253;34868;-33
2022/08/01 02:15:14;;;;;;;3.60;2.00;;;;;;;;;;110617;1253;34884;-34
2022/08/01 02:17:50;;;;;;;4.20;2.00;;;;;;;;;;110681;1253;35184;-34
2022/08/01 02:20:23;;;;;;;2.80;1.70;;;;;;;;;;110633;1253;34255;-34
2022/08/01 02:23:01;;;;;;;5.50;1.90;;;;;;;;;;110601;1246;35042;-34
2022/08/01 02:25:39;;;;;;;4.30;2.40;;;;;;;;;;110615;1253;35051;-34
2022/08/01 02:28:16;;;;;;;3.90;1.80;;;;;;;;;;110638;1253;35363;-34
2022/08/01 02:30:51;;;;;;;3.50;1.80;;;;;;;;;;110622;1248;34428;-32
2022/08/01 02:33:26;;;;;;;3.80;1.90;;;;;;;;;;110637;1244;33057;-34
2022/08/01 02:36:02;;;;;;;3.40;1.70;;;;;;;;;;110465;1248;35140;-34
2022/08/01 02:38:34;;;;;;;;;;;;;;;;;;110655;1253;35129;-33
2022/08/01 02:41:09;;;;;;;3.10;1.60;;;;;;;;;;110622;1247;35030;-34
2022/08/01 02:43:47;;;;;;;3.80;1.90;;;;;;;;;;110628;1253;34866;-35
2022/08/01 02:46:25;;;;;;;3.50;1.70;;;;;;;;;;110611;1253;34962;-35
2022/08/01 02:49:00;;;;;;;3.40;1.90;;;;;;;;;;110610;1247;33320;-34
2022/08/01 02:51:33;;;;;;;3.90;1.80;;;;;;;;;;110636;1248;34968;-35
2022/08/01 02:54:08;;;;;;;4.50;1.80;;;;;;;;;;110599;1254;34869;-35
2022/08/01 02:56:40;;;;;;;3.90;1.90;;;;;;;;;;110651;1253;34937;-34
2022/08/01 02:59:16;;;;;;;3.70;2.40;;;;;;;;;;110658;1244;35008;-37
2022/08/01 03:01:49;;;;;;;4.30;1.90;;;;;;;;;;110616;1245;35524;-36
2022/08/01 03:04:22;;;;;;;3.90;1.70;;;;;;;;;;110619;1253;34958;-34
2022/08/01 03:06:58;;;;;;;3.40;1.70;;;;;;;;;;110619;1253;34986;-36
2022/08/01 03:09:35;;;;;;;3.00;1.60;;;;;;;;;;110484;1250;35419;-35
2022/08/01 03:12:14;;;;;;;2.90;1.70;;;;;;;;;;110635;1253;33291;-34
2022/08/01 03:14:49;;;;;;;3.40;1.80;;;;;;;;;;110585;1253;34962;-37
2022/08/01 03:17:22;;;;;;;3.10;1.60;;;;;;;;;;110570;1253;35109;-34
2022/08/01 03:19:56;;;;;;;3.60;1.70;;;;;;;;;;110642;1253;35198;-36
2022/08/01 03:22:35;;;;;;;4.50;1.80;;;;;;;;;;110600;1253;35022;-36
2022/08/01 03:25:10;;;;;;;3.80;1.60;;;;;;;;;;110611;1251;34947;-35
2022/08/01 03:27:44;;;;;;;3.40;2.00;;;;;;;;;;110624;1244;35404;-34
2022/08/01 03:30:19;;;;;;;3.30;1.70;;;;;;;;;;110620;1253;35479;-33
2022/08/01 03:32:51;;;;;;;3.10;1.60;;;;;;;;;;110638;1253;33718;-34
2022/08/01 03:35:25;;;;;;;3.40;1.50;;;;;;;;;;110599;1253;34951;-34
2022/08/01 03:37:59;;;;;;;3.70;1.80;;;;;;;;;;110620;1244;34885;-34
2022/08/01 03:40:36;;;;;;;3.50;2.20;;;;;;;;;;110627;1244;35423;-35
2022/08/01 03:43:12;;;;;;;3.30;1.80;;;;;;;;;;110645;1247;33267;-34
2022/08/01 03:45:50;;;;;;;4.10;2.20;;;;;;;;;;110638;1253;35362;-33
2022/08/01 03:48:30;;;;;;;3.40;1.90;;;;;;;;;;110635;1247;35460;-32
2022/08/01 03:51:06;;;;;;;3.30;1.70;;;;;;;;;;110591;1253;34336;-34
2022/08/01 03:53:44;;;;;;;3.30;1.80;;;;;;;;;;110607;1245;34826;-34
2022/08/01 03:56:20;;;;;;;4.50;2.20;;;;;;;;;;110625;1254;33451;-34
2022/08/01 03:58:56;;;;;;;3.50;2.00;;;;;;;;;;110602;1254;35315;-33
2022/08/01 04:01:30;;;;;;;3.40;1.60;;;;;;;;;;110603;1248;34922;-34
2022/08/01 04:04:05;;;;;;;3.70;1.70;;;;;;;;;;110626;1248;34945;-34
2022/08/01 04:06:40;;;;;;;3.70;1.70;;;;;;;;;;110611;1248;35010;-32
2022/08/01 04:09:13;;;;;;;3.90;1.70;;;;;;;;;;110610;1254;35208;-33
2022/08/01 04:11:45;;;;;;;3.00;1.50;;;;;;;;;;110640;1248;34378;-32
2022/08/01 04:14:18;;;;;;;3.40;1.70;;;;;;;;;;110595;1247;34933;-32
2022/08/01 04:16:52;;;;;;;4.00;1.70;;;;;;;;;;110605;1254;34919;-32
2022/08/01 04:19:25;;;;;;;3.90;1.60;;;;;;;;;;110587;1248;33873;-33
2022/08/01 04:21:59;;;;;;;;;;;;;;;;;;110610;1254;34958;-34
2022/08/01 04:24:32;;;;;;;3.60;1.50;;;;;;;;;;110610;1248;34875;-32
2022/08/01 04:27:09;;;;;;;2.90;1.70;;;;;;;;;;110607;1246;35099;-34
2022/08/01 04:29:45;;;;;;;3.50;1.50;;;;;;;;;;110620;1254;34957;-34
2022/08/01 04:32:20;;;;;;;3.60;1.90;;;;;;;;;;110579;1248;34939;-34
2022/08/01 04:34:53;;;;;;;3.40;2.00;;;;;;;;;;110591;1253;35758;-32
2022/08/01 04:37:28;;;;;;;3.70;1.80;;;;;;;;;;110668;1254;35205;-37
2022/08/01 04:40:06;;;;;;;4.10;1.80;;;;;;;;;;110631;1247;35387;-36
2022/08/01 04:42:40;;;;;;;3.40;1.80;;;;;;;;;;110641;1254;33914;-36
2022/08/01 04:45:13;;;;;;;3.30;1.70;;;;;;;;;;110597;1247;34279;-33
2022/08/01 04:47:49;;;;;;;3.70;1.50;;;;;;;;;;110646;1254;34155;-35
2022/08/01 04:50:22;;;;;;;3.80;1.80;;;;;;;;;;110595;1254;34809;-35
2022/08/01 04:52:55;;;;;;;3.10;1.70;;;;;;;;;;110613;1246;34902;-34
2022/08/01 04:55:28;;;;;;;4.50;1.80;;;;;;;;;;110657;1247;35155;-35
2022/08/01 04:58:00;;;;;;;3.00;1.70;;;;;;;;;;110653;1253;34544;-32
2022/08/01 05:00:33;;;;;;;3.80;1.90;;;;;;;;;;110648;1253;34210;-32
2022/08/01 05:03:09;;;;;;;3.70;2.10;;;;;;;;;;110631;1253;35077;-32
2022/08/01 05:05:41;;;;;;;4.40;1.90;;;;;;;;;;110620;1253;34946;-32
2022/08/01 05:08:13;;;;;;;3.40;1.70;;;;;;;;;;110624;1253;34946;-33
2022/08/01 05:10:48;;;;;;;3.20;1.90;;;;;;;;;;110601;1253;34375;-34
2022/08/01 05:13:21;;;;;;;3.10;1.80;;;;;;;;;;110612;1248;33635;-34
2022/08/01 05:15:54;;;;;;;4.60;1.90;;;;;;;;;;110637;1253;35368;-34
2022/08/01 05:18:27;;;;;;;4.10;1.90;;;;;;;;;;110605;1253;34319;-32
2022/08/01 05:21:02;;;;;;;3.60;1.90;;;;;;;;;;110624;1253;35283;-33
2022/08/01 05:23:34;;;;;;;3.30;2.00;;;;;;;;;;110645;1247;33438;-33
2022/08/01 05:26:06;;;;;;;4.00;1.90;;;;;;;;;;110620;1253;35021;-32
2022/08/01 05:28:41;;;;;;;3.50;1.90;;;;;;;;;;110655;1253;35082;-34
2022/08/01 05:31:14;;;;;;;4.40;1.90;;;;;;;;;;110608;1253;34544;-34
2022/08/01 05:33:46;;;;;;;4.10;1.90;;;;;;;;;;110631;1253;35052;-35
2022/08/01 05:36:18;;;;;;;3.40;1.90;;;;;;;;;;110633;1246;34863;-34
2022/08/01 05:38:50;;;;;;;3.60;2.50;;;;;;;;;;110626;1253;35007;-35
2022/08/01 05:41:23;;;;;;;4.00;2.00;;;;;;;;;;110607;1250;33662;-34
2022/08/01 05:43:56;;;;;;;3.80;2.40;;;;;;;;;;110600;1253;35712;-36
2022/08/01 05:46:30;;;;;;;3.50;2.10;;;;;;;;;;110631;1247;34321;-34
2022/08/01 05:49:03;;;;;;;3.30;2.10;;;;;;;;;;110630;1252;34111;-32
2022/08/01 05:51:36;;;;;;;3.40;2.30;;;;;;;;;;110630;1253;34411;-32
2022/08/01 05:54:08;;;;;;;4.10;2.20;;;;;;;;;;110629;1253;35510;-33
2022/08/01 05:56:41;;;;;;;4.20;2.30;;;;;;;;;;110639;1253;35228;-32
2022/08/01 05:59:13;;;;;;;3.30;2.10;;;;;;;;;;110606;1247;34085;-32
2022/08/01 06:01:45;;;;;;;3.40;2.00;;;;;;;;;;110590;1253;35363;-32
2022/08/01 06:04:20;;;;;;;3.50;2.00;;;;;;;;;;110622;1253;35568;-33
2022/08/01 06:06:53;;;;;;;4.40;2.40;;;;;;;;;;110611;1253;34518;-33
2022/08/01 06:09:25;;;;;;;3.50;2.00;;;;;;;;;;110639;1253;35266;-34
2022/08/01 06:11:58;;;;;;;3.20;2.00;;;;;;;;;;110619;1253;34860;-33
2022/08/01 06:14:30;;;;;;;3.70;2.20;;;;;;;;;;110636;1246;35180;-34
2022/08/01 06:17:02;;;;;;;3.70;2.40;;;;;;;;;;110607;1253;34627;-33
2022/08/01 06:19:35;;;;;;;3.20;1.80;;;;;;;;;;110614;1253;35088;-35
2022/08/01 06:22:07;;;;;;;3.50;2.10;;;;;;;;;;110609;1247;35150;-35
2022/08/01 06:24:39;;;;;;;3.70;2.20;;;;;;;;;;110591;1247;34411;-37
2022/08/01 06:27:11;;;;;;;4.00;2.20;;;;;;;;;;110662;1247;35237;-37
2022/08/01 06:29:43;;;;;;;3.90;2.20;;;;;;;;;;110657;1245;34940;-37
2022/08/01 06:32:15;;;;;;;4.10;2.10;;;;;;;;;;110681;1253;35253;-34
2022/08/01 06:34:47;;;;;;;3.80;2.20;;;;;;;;;;110672;1247;35042;-35
2022/08/01 06:37:19;;;;;;;4.20;2.60;;;;;;;;;;110651;1253;35041;-35
2022/08/01 06:39:52;;;;;;;3.80;2.20;;;;;;;;;;110662;1253;35611;-35
2022/08/01 06:42:24;;;;;;;5.20;2.20;;;;;;;;;;110650;1253;35771;-34
2022/08/01 06:44:57;;;;;;;5.90;2.40;;;;;;;;;;110648;1247;35127;-34
2022/08/01 06:47:28;;;;;;;5.70;2.50;;;;;;;;;;110666;1253;35419;-34
2022/08/01 06:50:00;;;;;;;5.30;2.50;;;;;;;;;;110627;1253;35259;-34
2022/08/01 06:52:33;;;;;;;4.30;2.20;;;;;;;;;;110600;1253;33246;-34
2022/08/01 06:55:06;;;;;;;6.30;2.90;;;;;;;;;;110637;1253;35527;-37
2022/08/01 06:57:40;;;;;;;4.20;2.40;;;;;;;;;;110628;1253;35337;-34
2022/08/01 07:00:16;;;;;;;4.20;2.30;;;;;;;;;;110656;1250;33402;-34
2022/08/01 07:02:48;;;;;;;5.80;2.20;;;;;;;;;;110643;1245;34923;-35
2022/08/01 07:05:20;;;;;;;4.20;2.80;;;;;;;;;;110648;1247;33260;-34
2022/08/01 07:07:53;;;;;;;4.00;2.40;;;;;;;;;;110646;1247;35349;-34
2022/08/01 07:10:25;;;;;;;4.30;2.20;;;;;;;;;;110659;1253;35469;-36
2022/08/01 07:12:57;;;;;;;4.50;2.40;;;;;;;;;;110677;1253;35355;-35
2022/08/01 07:15:29;;;;;;;5.10;2.70;;;;;;;;;;110636;1248;35065;-34
2022/08/01 07:18:03;;;;;;;4.70;2.30;;;;;;;;;;110651;1248;35194;-34
2022/08/01 07:20:35;;;;;;;4.80;2.50;;;;;;;;;;110667;1253;35010;-34
2022/08/01 07:23:10;;;;;;;4.00;2.10;;;;;;;;;;110650;1253;35162;-35
2022/08/01 07:25:43;;;;;;;5.00;2.40;;;;;;;;;;110653;1245;34905;-34
2022/08/01 07:28:15;;;;;;;4.00;2.20;;;;;;;;;;110608;1253;35252;-32
2022/08/01 07:30:48;;;;;;;4.40;2.40;;;;;;;;;;110553;1253;35110;-37
2022/08/01 07:33:22;;;;;;;5.30;2.50;;;;;;;;;;110495;1253;35028;-35
2022/08/01 07:35:54;;;;;;;5.40;2.30;;;;;;;;;;110486;1247;35181;-37
2022/08/01 07:38:26;;;;;;;4.70;2.40;;;;;;;;;;110590;1252;34856;-40
2022/08/01 07:40:58;;;;;;;5.00;2.00;;;;;;;;;;110590;1253;35123;-38
2022/08/01 07:43:31;;;;;;;5.70;2.30;;;;;;;;;;110594;1247;35417;-37
2022/08/01 07:46:03;;;;;;;4.00;2.10;;;;;;;;;;110638;1253;35296;-40
2022/08/01 07:48:35;;;;;;;4.20;2.10;;;;;;;;;;110652;1245;34982;-37
2022/08/01 07:51:08;;;;;;;3.90;2.10;;;;;;;;;;110643;1247;36248;-37
2022/08/01 07:53:40;;;;;;;4.30;2.30;;;;;;;;;;110676;1253;35218;-37
2022/08/01 07:56:12;;;;;;;4.80;2.20;;;;;;;;;;110628;1247;34272;-35
2022/08/01 07:58:45;;;;;;;4.40;2.20;;;;;;;;;;110618;1251;34367;-38
2022/08/01 08:01:20;;;;;;;4.10;1.90;;;;;;;;;;110642;1253;34572;-35
2022/08/01 08:03:52;;;;;;;3.70;2.20;;;;;;;;;;110635;1248;35035;-38
2022/08/01 08:06:24;;;;;;;3.20;1.80;;;;;;;;;;110630;1253;34892;-35
2022/08/01 08:08:56;;;;;;;3.90;1.90;;;;;;;;;;110623;1247;36072;-36
2022/08/01 08:11:29;;;;;;;4.00;2.20;;;;;;;;;;110630;1246;35202;-35
2022/08/01 08:14:01;;;;;;;3.40;1.80;;;;;;;;;;110627;1253;33256;-36
2022/08/01 08:16:33;;;;;;;3.50;1.60;;;;;;;;;;110649;1247;35509;-36
2022/08/01 08:19:06;;;;;;;3.90;1.90;;;;;;;;;;110566;1247;35107;-40
2022/08/01 08:21:38;;;;;;;3.70;2.10;;;;;;;;;;110581;1247;35109;-37
2022/08/01 08:24:23;;;;;;;3.70;1.90;;;;;;;;;;110542;1252;34953;-37
2022/08/01 08:26:57;;;;;;;3.50;1.90;;;;;;;;;;110631;1253;35051;-39
2022/08/01 08:29:31;;;;;;;3.90;2.00;;;;;;;;;;110665;1247;35110;-38
2022/08/01 08:32:04;;;;;;;5.50;1.90;;;;;;;;;;110679;1244;35077;-36
2022/08/01 08:34:37;;;;;;;4.10;2.00;;;;;;;;;;110618;1253;35552;-37
2022/08/01 08:37:09;;;;;;;4.90;2.30;;;;;;;;;;110626;1253;34943;-37
2022/08/01 08:39:42;;;;;;;4.30;2.10;;;;;;;;;;110520;1254;34445;-37
2022/08/01 08:42:14;;;;;;;4.40;2.10;;;;;;;;;;110572;1247;35226;-37
2022/08/01 08:44:46;;;;;;;4.00;2.30;;;;;;;;;;110674;1253;35383;-37
2022/08/01 08:47:19;;;;;;;3.30;1.90;;;;;;;;;;110655;1246;34788;-38
2022/08/01 08:49:53;;;;;;;4.30;2.30;;;;;;;;;;110684;1253;34619;-38
2022/08/01 08:52:26;;;;;;;4.90;2.40;;;;;;;;;;110676;1253;35681;-39
2022/08/01 08:55:01;;;;;;;3.80;2.00;;;;;;;;;;110644;1253;35770;-37
2022/08/01 08:57:33;;;;;;;4.40;2.30;;;;;;;;;;110636;1253;35290;-37
2022/08/01 09:00:09;;;;;;;4.20;2.00;;;;;;;;;;110652;1247;34770;-36
2022/08/01 09:02:46;;;;;;;4.40;1.90;;;;;;;;;;110625;1253;33256;-38
2022/08/01 09:05:25;;;;;;;4.70;1.70;;;;;;;;;;110621;1253;35561;-38
2022/08/01 09:07:57;;;;;;;5.00;2.30;;;;;;;;;;110636;1247;34966;-38
2022/08/01 09:10:29;;;;;;;2.80;1.50;;;;;;;;;;110646;1247;34877;-38
2022/08/01 09:13:10;;;;;;;3.30;1.90;;;;;;;;;;110651;1247;35071;-37
2022/08/01 09:15:47;;;;;;;3.50;1.90;;;;;;;;;;110669;1253;35634;-38
2022/08/01 09:18:35;;;;;;;3.20;1.60;;;;;;;;;;110615;1253;35061;-37
2022/08/01 09:21:21;;;;;;;3.80;1.80;;;;;;;;;;110670;1244;34860;-38
2022/08/01 09:23:56;;;;;;;4.40;1.80;;;;;;;;;;110615;1246;34567;-39
2022/08/01 09:26:35;;;;;;;4.30;1.90;;;;;;;;;;110647;1247;35615;-38
2022/08/01 09:29:09;;;;;;;3.70;2.10;;;;;;;;;;110659;1253;35099;-39
2022/08/01 09:31:47;;;;;;;5.20;2.70;;;;;;;;;;110637;1253;34523;-39
2022/08/01 09:34:27;;;;;;;3.50;1.60;;;;;;;;;;110463;1253;33801;-38
2022/08/01 09:37:02;;;;;;;4.90;1.90;;;;;;;;;;110655;1247;34968;-37
2022/08/01 09:39:37;;;;;;;4.00;2.00;;;;;;;;;;110577;1247;35290;-37
2022/08/01 09:42:25;;;;;;;4.40;2.10;;;;;;;;;;110559;1254;35156;-38
2022/08/01 09:44:57;;;;;;;4.20;2.10;;;;;;;;;;110584;1254;35162;-39
2022/08/01 09:47:41;;;;;;;3.70;1.80;;;;;;;;;;110558;1254;34937;-35
2022/08/01 09:50:13;;;;;;;3.80;2.00;;;;;;;;;;110603;1246;34927;-40
2022/08/01 09:52:56;;;;;;;3.90;1.90;;;;;;;;;;110595;1254;33230;-37
2022/08/01 09:55:29;;;;;;;4.30;1.70;;;;;;;;;;110572;1254;35308;-39
2022/08/01 09:58:01;;;;;;;3.90;1.80;;;;;;;;;;110590;1247;33664;-39
2022/08/01 10:00:33;;;;;;;5.10;1.90;;;;;;;;;;110578;1248;35314;-35
2022/08/01 10:03:23;;;;;;;3.60;1.70;;;;;;;;;;110589;1247;34994;-34
2022/08/01 10:05:56;;;;;;;4.30;2.10;;;;;;;;;;110587;1254;35241;-35
2022/08/01 10:08:28;;;;;;;4.50;1.80;;;;;;;;;;110574;1254;35349;-35
2022/08/01 10:11:12;;;;;;;4.10;1.70;;;;;;;;;;110579;1254;33578;-34
2022/08/01 10:13:45;;;;;;;4.40;1.90;;;;;;;;;;110595;1254;35769;-32
2022/08/01 10:16:19;;;;;;;4.00;2.00;;;;;;;;;;110547;1247;34953;-34
2022/08/01 10:18:51;;;;;;;3.80;1.60;;;;;;;;;;110605;1247;35744;-31
2022/08/01 10:21:26;;;;;;;4.90;2.20;;;;;;;;;;110618;1253;33255;-36
2022/08/01 10:23:58;;;;;;;4.40;1.90;;;;;;;;;;110600;1254;35178;-39
2022/08/01 10:26:33;;;;;;;4.60;2.20;;;;;;;;;;110584;1254;35504;-38
2022/08/01 10:29:05;;;;;;;2.80;1.60;;;;;;;;;;110593;1247;34946;-39
2022/08/01 10:31:38;;;;;;;5.00;1.90;;;;;;;;;;110572;1254;35843;-40
2022/08/01 10:34:11;;;;;;;4.20;1.90;;;;;;;;;;110561;1254;35416;-35
2022/08/01 10:36:43;;;;;;;3.80;1.70;;;;;;;;;;110536;1254;35132;-33
2022/08/01 10:39:16;;;;;;;3.40;1.70;;;;;;;;;;110609;1248;35126;-35
2022/08/01 10:41:49;;;;;;;3.30;1.90;;;;;;;;;;110637;1248;35622;-35
2022/08/01 10:44:21;;;;;;;4.10;1.90;;;;;;;;;;110645;1253;34967;-37
2022/08/01 10:46:58;;;;;;;4.30;2.00;;;;;;;;;;110621;1253;35348;-36
2022/08/01 10:49:33;;;;;;;4.40;2.00;;;;;;;;;;110602;1253;35513;-36
2022/08/01 10:52:06;;;;;;;3.20;1.80;;;;;;;;;;110641;1253;33249;-35
2022/08/01 10:54:43;;;;;;;3.50;1.80;;;;;;;;;;110695;1245;34940;-36
2022/08/01 10:57:17;;;;;;;4.40;2.20;;;;;;;;;;110642;1248;34955;-36
2022/08/01 10:59:54;;;;;;;4.90;1.90;;;;;;;;;;110694;1253;35300;-36
2022/08/01 11:02:34;;;;;;;4.60;1.80;;;;;;;;;;110661;1253;35035;-35
2022/08/01 11:05:12;;;;;;;3.80;2.30;;;;;;;;;;110700;1253;35117;-35
2022/08/01 11:07:53;;;;;;;3.80;1.80;;;;;;;;;;110399;1252;386818;-35
2022/08/01 11:10:34;;;;;;;5.00;2.10;;;;;;;;;;110628;1247;35817;-34
2022/08/01 11:13:08;;;;;;;3.50;2.00;;;;;;;;;;110637;1252;35167;-41
2022/08/01 11:15:41;;;;;;;3.80;1.90;;;;;;;;;;110648;1252;34965;-41
2022/08/01 11:21:11;;;;;;;3.50;1.80;;;;;;;;;;107203;1288;568549;-38
2022/08/01 11:23:53;;;;;;;4.70;1.80;;;;;;;;;;109714;1265;34210;-37
2022/08/01 11:26:25;;;;;;;3.10;1.70;;;;;;;;;;109714;1257;35014;-33
2022/08/01 11:29:16;;;;;;;3.80;1.80;;;;;;;;;;109696;1258;33177;-35
2022/08/01 11:31:48;;;;;;;3.70;1.90;;;;;;;;;;109715;1265;35055;-32
2022/08/01 11:34:21;;;;;;;6.10;2.00;;;;;;;;;;109630;1257;189638;-34
2022/08/01 11:37:25;;;;;;;4.30;1.80;;;;;;;;;;110001;1263;35041;-34
2022/08/01 11:40:22;;;;;;;3.20;1.70;;;;;;;;;;109721;1258;34441;-32
2022/08/01 11:43:20;;;;;;;3.40;1.70;;;;;;;;;;109749;1264;34440;-34
2022/08/01 11:45:55;;;;;;;4.10;1.60;;;;;;;;;;109747;1264;34479;-35
2022/08/01 11:48:28;;;;;;;3.90;1.90;;;;;;;;;;109775;1264;35279;-34
2022/08/01 11:50:59;;;;;;;;;;;;;;;;;;109784;1264;34844;-34
2022/08/01 11:53:33;;;;;;;3.70;1.60;;;;;;;;;;109746;1256;34223;-33
2022/08/01 11:56:05;;;;;;;3.70;1.80;;;;;;;;;;109546;1264;34452;-33
2022/08/01 11:58:37;;;;;;;3.70;1.70;;;;;;;;;;109571;1257;34975;-33
2022/08/01 12:01:14;;;;;;;3.60;1.80;;;;;;;;;;109629;1263;33838;-40
2022/08/01 12:03:46;;;;;;;3.40;1.70;;;;;;;;;;109866;1257;33309;-38
2022/08/01 12:06:29;;;;;;;3.30;1.60;;;;;;;;;;110092;1260;34938;-37
2022/08/01 12:09:18;;;;;;;3.00;1.50;;;;;;;;;;110086;1253;34744;-38
2022/08/01 12:11:50;;;;;;;5.20;1.90;;;;;;;;;;110143;1260;35103;-40
2022/08/01 12:14:25;;;;;;;3.30;1.60;;;;;;;;;;110114;1260;34948;-40
2022/08/01 12:16:57;;;;;;;3.00;1.50;;;;;;;;;;110102;1253;34632;-39
2022/08/01 12:19:29;;;;;;;3.60;1.50;;;;;;;;;;110250;1251;34343;-41
2022/08/01 12:22:15;;;;;;;3.50;1.80;;;;;;;;;;110228;1259;34434;-40
2022/08/01 12:24:47;;;;;;;3.10;1.50;;;;;;;;;;110416;1256;34656;-41
2022/08/01 12:27:29;;;;;;;3.60;1.60;;;;;;;;;;110442;1256;34825;-39
2022/08/01 12:30:02;;;;;;;3.80;1.60;;;;;;;;;;110486;1248;34602;-37
2022/08/01 12:32:37;;;;;;;3.40;1.50;;;;;;;;;;110428;1248;34942;-46
2022/08/01 12:35:12;;;;;;;3.20;1.50;;;;;;;;;;110415;1250;35013;-40
2022/08/01 12:37:46;;;;;;;4.30;1.60;;;;;;;;;;110442;1256;33463;-41
2022/08/01 12:40:21;;;;;;;3.40;1.80;;;;;;;;;;110420;1256;34760;-40
2022/08/01 12:42:55;;;;;;;2.70;1.40;;;;;;;;;;110437;1249;35046;-40
2022/08/01 12:45:30;;;;;;;3.00;1.50;;;;;;;;;;110440;1250;34268;-38
2022/08/01 12:48:06;;;;;;;3.80;2.00;;;;;;;;;;110445;1250;33917;-39
2022/08/01 12:50:42;;;;;;;4.00;1.70;;;;;;;;;;110404;1256;34799;-39
2022/08/01 12:53:15;;;;;;;2.90;1.70;;;;;;;;;;110257;1256;34288;-38
2022/08/01 12:55:54;;;;;;;3.20;1.70;;;;;;;;;;110316;1249;35177;-38
2022/08/01 12:58:31;;;;;;;3.50;1.90;;;;;;;;;;110379;1249;33834;-39
2022/08/01 13:01:08;;;;;;;3.50;1.60;;;;;;;;;;110394;1256;34667;-38
2022/08/01 13:03:41;;;;;;;3.70;1.80;;;;;;;;;;110412;1256;34821;-37
2022/08/01 13:06:16;;;;;;;3.40;1.70;;;;;;;;;;110415;1256;34624;-41
2022/08/01 13:08:48;;;;;;;3.00;1.70;;;;;;;;;;110423;1256;35066;-40
2022/08/01 13:11:21;;;;;;;3.40;1.80;;;;;;;;;;110300;1249;36707;-40
2022/08/01 13:13:54;;;;;;;3.50;2.40;;;;;;;;;;110274;1251;35058;-43
2022/08/01 13:16:28;;;;;;;3.70;2.10;;;;;;;;;;110285;1256;34011;-40
2022/08/01 13:19:00;;;;;;;4.60;2.50;;;;;;;;;;110261;1256;34412;-38
2022/08/01 13:21:33;;;;;;;4.50;2.50;;;;;;;;;;110261;1256;35005;-40
2022/08/01 13:24:10;;;;;;;3.90;2.30;;;;;;;;;;110269;1251;34805;-40
2022/08/01 13:26:45;;;;;;;4.20;2.60;;;;;;;;;;110277;1250;34940;-39
2022/08/01 13:29:20;;;;;;;4.00;2.70;;;;;;;;;;110233;1256;34947;-39
2022/08/01 13:31:52;;;;;;;3.60;2.60;;;;;;;;;;110262;1256;35028;-39
2022/08/01 13:34:33;;;;;;;4.10;2.70;;;;;;;;;;110242;1251;35215;-39
2022/08/01 13:37:05;;;;;;;3.90;2.80;;;;;;;;;;110355;1250;33327;-40
2022/08/01 13:39:44;;;;;;;4.00;2.80;;;;;;;;;;110306;1250;34956;-39
2022/08/01 13:42:17;;;;;;;4.60;2.90;;;;;;;;;;110236;1256;35254;-40
2022/08/01 13:44:49;;;;;;;4.70;2.80;;;;;;;;;;110307;1250;35029;-38
2022/08/01 13:47:21;;;;;;;4.70;2.90;;;;;;;;;;110604;1250;25805;-43
2022/08/01 13:49:53;;;;;;;4.10;2.80;;;;;;;;;;110573;1256;22536;-37
2022/08/01 13:52:25;;;;;;;3.80;2.70;;;;;;;;;;110567;1256;24154;-38
2022/08/01 13:54:57;;;;;;;4.00;2.90;;;;;;;;;;110549;1256;24043;-39
2022/08/01 13:57:30;;;;;;;4.20;2.90;;;;;;;;;;110562;1256;24267;-38
2022/08/01 14:00:02;;;;;;;4.40;3.20;;;;;;;;;;110548;1256;22421;-38
2022/08/01 14:02:35;;;;;;;4.30;3.00;;;;;;;;;;110547;1256;25512;-37
2022/08/01 14:05:09;;;;;;;3.80;2.70;;;;;;;;;;110551;1256;24568;-37
2022/08/01 14:07:42;;;;;;;4.10;2.80;;;;;;;;;;110549;1256;24154;-37
2022/08/01 14:10:14;;;;;;;4.70;2.90;;;;;;;;;;110631;1256;24204;-37
2022/08/01 14:12:46;;;;;;;3.90;2.60;;;;;;;;;;110669;1255;22485;-37
2022/08/01 14:15:19;;;;;;;4.00;3.00;;;;;;;;;;110730;1255;22472;-38
2022/08/01 14:17:52;;;;;;;4.60;2.70;;;;;;;;;;110759;1255;22472;-37
2022/08/01 14:20:24;;;;;;;4.50;2.80;;;;;;;;;;110709;1255;24014;-40
2022/08/01 14:22:56;;;;;;;3.70;2.50;;;;;;;;;;110672;1256;24266;-37
2022/08/01 14:25:28;;;;;;;4.00;2.90;;;;;;;;;;110724;1255;23967;-37
2022/08/01 14:28:01;;;;;;;4.60;3.10;;;;;;;;;;110697;1256;22581;-38
2022/08/01 14:30:33;;;;;;;4.40;3.00;;;;;;;;;;110722;1255;22482;-37
2022/08/01 14:33:05;;;;;;;3.90;3.00;;;;;;;;;;110729;1255;24809;-38
2022/08/01 14:35:37;;;;;;;3.90;2.80;;;;;;;;;;110711;1255;24214;-39
2022/08/01 14:38:09;;;;;;;3.90;2.80;;;;;;;;;;110719;1256;24122;-38
2022/08/01 14:40:42;;;;;;;4.70;3.00;;;;;;;;;;110756;1255;22488;-37
2022/08/01 14:43:14;;;;;;;4.10;2.90;;;;;;;;;;110747;1255;24117;-40
2022/08/01 14:45:49;;;;;;;3.90;2.70;;;;;;;;;;110718;1256;24024;-38
2022/08/01 14:48:21;;;;;;;3.70;2.70;;;;;;;;;;110707;1255;24266;-38
2022/08/01 14:50:53;;;;;;;4.10;2.80;;;;;;;;;;110781;1255;22452;-39
2022/08/01 14:53:25;;;;;;;4.40;3.10;;;;;;;;;;110750;1255;22484;-42
2022/08/01 14:55:57;;;;;;;3.90;2.80;;;;;;;;;;110945;1252;22478;-38
2022/08/01 14:58:30;;;;;;;3.90;2.80;;;;;;;;;;110922;1252;24136;-36
2022/08/01 15:01:04;;;;;;;4.00;3.00;;;;;;;;;;110762;1253;25460;-37
2022/08/01 15:03:36;;;;;;;3.90;2.90;;;;;;;;;;110881;1253;24112;-37
2022/08/01 15:06:10;;;;;;;4.20;3.20;;;;;;;;;;110936;1253;25288;-38
2022/08/01 15:08:43;;;;;;;4.10;2.90;;;;;;;;;;110880;1252;35028;-38
2022/08/01 15:11:18;;;;;;;4.10;3.00;;;;;;;;;;110671;1253;35118;-38
2022/08/01 15:14:47;;;;;;;3.80;2.80;;;;;;;;;;110660;1253;34670;-44
2022/08/01 15:16:43;;;;;;;3.60;2.70;;;;;;;;;;110687;1253;33345;-40